This is the latest recevied weather packets stored in our database for station/object IQ5KG. If no packets are shown the sender has not sent any weather packets the latest 10 day(s).
| Time | Temp. | Humidity | Pressure | Rain* | Wind** | Luminosity | Snow |
|---|---|---|---|---|---|---|---|
| 1777954696 | 12.22° C | 98% | 1013.7 hPa | 5.59 mm | - | - | - |
| 1777953797 | 12.22° C | 98% | 1013.7 hPa | 1.27 mm | - | - | - |
| 1777952896 | 12.22° C | 98% | 1013.9 hPa | 1.27 mm | - | - | - |
| 1777951996 | 12.22° C | 98% | 1014.2 hPa | 2.03 mm | - | - | - |
| 1777951097 | 12.22° C | 98% | 1014.2 hPa | 2.29 mm | - | - | - |
| 1777950195 | 12.22° C | 98% | 1014.4 hPa | 2.79 mm | - | - | - |
| 1777949295 | 12.78° C | 98% | 1014.7 hPa | 2.29 mm | - | - | - |
| 1777948395 | 12.78° C | 97% | 1014.7 hPa | 3.3 mm | - | - | - |
| 1777947495 | 12.78° C | 97% | 1015.1 hPa | 3.81 mm | - | - | - |
| 1777946596 | 12.78° C | 97% | 1015.1 hPa | 4.83 mm | - | - | - |
| 1777945694 | 12.78° C | 96% | 1015.4 hPa | 4.57 mm | - | - | - |
| 1777944795 | 12.78° C | 95% | 1015.4 hPa | 3.56 mm | - | - | - |
| 1777943896 | 12.78° C | 94% | 1015.6 hPa | 3.56 mm | - | - | - |
| 1777942995 | 13.33° C | 93% | 1015.7 hPa | 2.29 mm | - | - | - |
| 1777942096 | 13.33° C | 91% | 1016 hPa | 1.78 mm | - | - | - |
| 1777941194 | 13.89° C | 87% | 1016.1 hPa | 1.02 mm | - | - | - |
| 1777940295 | 14.44° C | 82% | 1016 hPa | 0 mm | - | - | - |
| 1777939395 | 15° C | 79% | 1016.3 hPa | 0 mm | - | - | - |
| 1777938495 | 14.44° C | 80% | 1016.5 hPa | 0 mm | - | - | - |
| 1777937596 | 14.44° C | 80% | 1016.5 hPa | 0 mm | - | - | - |
| 1777936695 | 15° C | 76% | 1016.6 hPa | 0 mm | - | - | - |
| 1777935795 | 15° C | 74% | 1017.1 hPa | 0 mm | - | - | - |
| 1777934894 | 15.56° C | 72% | 1017.3 hPa | 0 mm | - | - | - |
| 1777933994 | 15.56° C | 71% | 1017.4 hPa | 0 mm | - | - | - |
| 1777933093 | 16.11° C | 70% | 1017.7 hPa | 0 mm | - | - | - |
* Rain latest hour (hover to see other rain measurements)
** Current wind speed in m/s (hover to see current wind gust speed)